createdAt,value
2022-12-01T00:00:13.520Z,42.30
2022-12-01T00:03:16.349Z,44.38
2022-12-01T00:06:20.993Z,43.25
2022-12-01T00:09:41.872Z,43.30
2022-12-01T00:12:44.346Z,44.67
2022-12-01T00:15:47.283Z,41.00
2022-12-01T00:18:51.280Z,40.55
2022-12-01T00:21:53.937Z,45.33
2022-12-01T00:24:56.262Z,44.80
2022-12-01T00:27:58.966Z,46.65
2022-12-01T00:31:01.346Z,33.63
2022-12-01T00:34:06.888Z,30.65
2022-12-01T00:37:13.271Z,27.40
2022-12-01T00:40:15.653Z,27.03
2022-12-01T00:43:17.995Z,23.33
2022-12-01T00:46:20.560Z,18.67
2022-12-01T00:49:22.849Z,15.82
2022-12-01T00:52:25.151Z,20.35
2022-12-01T00:55:27.535Z,13.67
2022-12-01T00:58:29.857Z,18.58
2022-12-01T01:01:32.204Z,15.35
2022-12-01T01:04:36.443Z,14.13
2022-12-01T01:07:40.348Z,14.57
2022-12-01T01:10:44.799Z,14.97
2022-12-01T01:13:47.234Z,17.50
2022-12-01T01:16:49.938Z,16.65
2022-12-01T01:19:55.218Z,19.70
2022-12-01T01:22:57.664Z,17.20
2022-12-01T01:26:12.402Z,18.33
2022-12-01T01:29:14.657Z,16.83
2022-12-01T01:32:16.921Z,21.45
2022-12-01T01:35:19.118Z,19.48
2022-12-01T01:38:21.376Z,19.17
2022-12-01T01:41:24.461Z,16.00
2022-12-01T01:44:50.286Z,19.35
2022-12-01T01:47:55.616Z,20.80
2022-12-01T01:50:58.042Z,22.55
2022-12-01T01:54:04.541Z,24.23
2022-12-01T01:57:09.421Z,24.43
2022-12-01T02:00:15.073Z,22.67
2022-12-01T02:03:20.545Z,22.02
2022-12-01T02:06:24.388Z,22.35
2022-12-01T02:09:26.677Z,21.63
2022-12-01T02:12:57.744Z,21.60
2022-12-01T02:16:24.609Z,22.38
2022-12-01T02:19:45.160Z,24.38
2022-12-01T02:23:05.398Z,21.08
2022-12-01T02:26:26.831Z,24.08
2022-12-01T02:29:57.097Z,21.43
2022-12-01T02:33:15.041Z,25.20
2022-12-01T02:36:22.213Z,24.08
2022-12-01T02:39:35.808Z,25.90
2022-12-01T02:42:50.282Z,24.95
2022-12-01T02:46:17.378Z,23.20
2022-12-01T02:49:26.355Z,26.40
2022-12-01T02:52:29.174Z,23.63
2022-12-01T02:55:33.747Z,22.13
2022-12-01T02:58:36.084Z,26.08
2022-12-01T03:02:09.435Z,25.03
2022-12-01T03:05:30.154Z,25.95
2022-12-01T03:08:46.107Z,25.73
2022-12-01T03:12:26.084Z,23.08
2022-12-01T03:16:04.732Z,24.48
2022-12-01T03:19:32.518Z,25.40
2022-12-01T03:23:00.161Z,25.45
2022-12-01T03:26:07.101Z,24.60
2022-12-01T03:29:15.108Z,23.73
2022-12-01T03:32:24.841Z,28.10
2022-12-01T03:35:38.080Z,24.83
2022-12-01T03:38:45.600Z,26.83
2022-12-01T03:41:54.995Z,25.40
2022-12-01T03:45:04.059Z,26.20
2022-12-01T03:48:07.399Z,28.58
2022-12-01T03:51:38.702Z,24.77
2022-12-01T03:55:04.648Z,31.58
2022-12-01T03:58:12.529Z,28.77
2022-12-01T04:01:15.083Z,29.23
2022-12-01T04:04:17.677Z,26.27
2022-12-01T04:07:21.637Z,28.07
2022-12-01T04:10:24.287Z,30.90
2022-12-01T04:13:26.887Z,27.52
2022-12-01T04:16:29.255Z,29.13
2022-12-01T04:19:32.124Z,31.55
2022-12-01T04:22:34.495Z,28.93
2022-12-01T04:25:36.727Z,25.70
2022-12-01T04:28:39.016Z,26.75
2022-12-01T04:31:41.734Z,31.48
2022-12-01T04:34:44.315Z,30.77
2022-12-01T04:37:46.588Z,32.37
2022-12-01T04:40:48.823Z,32.25
2022-12-01T04:43:54.385Z,31.73
2022-12-01T04:46:56.874Z,30.08
2022-12-01T04:49:59.190Z,29.83
2022-12-01T04:53:01.464Z,32.20
2022-12-01T04:56:04.418Z,34.05
2022-12-01T04:59:07.582Z,32.90
2022-12-01T05:02:10.078Z,42.13
2022-12-01T05:05:14.143Z,34.08
2022-12-01T05:08:16.510Z,40.10
2022-12-01T05:11:19.137Z,40.03
2022-12-01T05:14:21.364Z,39.38
2022-12-01T05:17:23.750Z,36.22
2022-12-01T05:20:44.560Z,39.90
2022-12-01T05:23:46.870Z,38.10
2022-12-01T05:26:49.249Z,39.00
2022-12-01T05:29:51.849Z,39.88
2022-12-01T05:32:54.848Z,36.70
2022-12-01T05:35:57.405Z,41.28
2022-12-01T05:38:59.805Z,44.10
2022-12-01T05:42:02.310Z,39.15
2022-12-01T05:45:04.988Z,36.38
2022-12-01T05:48:07.242Z,47.65
2022-12-01T05:51:11.160Z,44.78
2022-12-01T05:54:13.454Z,52.07
2022-12-01T05:57:15.823Z,48.58
2022-12-01T06:00:18.623Z,50.17
2022-12-01T06:03:20.875Z,53.80
2022-12-01T06:06:23.179Z,49.15
2022-12-01T06:09:25.453Z,52.97
2022-12-01T06:12:27.937Z,46.92
2022-12-01T06:15:30.240Z,45.88
2022-12-01T06:18:34.905Z,41.50
2022-12-01T06:21:37.151Z,43.42
2022-12-01T06:24:39.449Z,38.27
2022-12-01T06:27:41.689Z,40.08
2022-12-01T06:30:44.403Z,40.05
2022-12-01T06:33:46.824Z,46.13
2022-12-01T06:36:49.559Z,37.20
2022-12-01T06:39:52.252Z,45.80
2022-12-01T06:42:54.761Z,51.75
2022-12-01T06:46:01.655Z,48.53
2022-12-01T06:49:04.987Z,50.80
2022-12-01T06:52:07.378Z,44.58
2022-12-01T06:55:09.909Z,47.30
2022-12-01T06:58:12.541Z,53.13
2022-12-01T07:01:17.210Z,49.80
2022-12-01T07:04:19.736Z,47.88
2022-12-01T07:07:22.136Z,43.00
2022-12-01T07:10:24.504Z,46.33
2022-12-01T07:13:32.777Z,49.92
2022-12-01T07:16:35.842Z,46.17
2022-12-01T07:19:38.195Z,46.17
2022-12-01T07:22:40.544Z,38.80
2022-12-01T07:25:42.924Z,36.90
2022-12-01T07:28:45.777Z,38.60
2022-12-01T07:31:48.188Z,33.72
2022-12-01T07:34:50.538Z,33.20
2022-12-01T07:37:56.869Z,29.27
2022-12-01T07:41:14.263Z,29.03
2022-12-01T07:44:16.703Z,31.75
2022-12-01T07:47:19.346Z,31.25
2022-12-01T07:50:21.647Z,32.22
2022-12-01T07:53:24.133Z,36.15
2022-12-01T07:56:26.431Z,32.87
2022-12-01T07:59:28.747Z,33.60
2022-12-01T08:02:31.239Z,34.08
2022-12-01T08:05:33.804Z,30.38
2022-12-01T08:08:37.898Z,29.52
2022-12-01T08:11:40.328Z,26.13
2022-12-01T08:14:42.943Z,30.08
2022-12-01T08:17:45.182Z,29.63
2022-12-01T08:20:47.598Z,26.55
2022-12-01T08:23:55.706Z,28.52
2022-12-01T08:26:58.002Z,26.77
2022-12-01T08:30:00.368Z,37.60
2022-12-01T08:33:03.010Z,36.65
2022-12-01T08:36:05.925Z,36.08
2022-12-01T08:39:08.913Z,32.70
2022-12-01T08:42:11.239Z,29.00
2022-12-01T08:45:13.738Z,30.80
2022-12-01T08:48:15.991Z,31.33
2022-12-01T08:51:19.325Z,28.95
2022-12-01T08:54:22.085Z,30.95
2022-12-01T08:57:24.429Z,29.30
2022-12-01T09:00:26.755Z,29.60
2022-12-01T09:03:29.155Z,28.27
2022-12-01T09:06:33.478Z,27.45
2022-12-01T09:09:36.259Z,28.08
2022-12-01T09:12:38.719Z,26.37
2022-12-01T09:15:41.276Z,28.67
2022-12-01T09:18:45.422Z,28.73
2022-12-01T09:21:48.276Z,29.92
2022-12-01T09:24:50.570Z,31.27
2022-12-01T09:27:52.903Z,31.40
2022-12-01T09:30:55.219Z,28.23
2022-12-01T09:34:00.212Z,31.10
2022-12-01T09:37:02.593Z,30.30
2022-12-01T09:40:05.532Z,31.95
2022-12-01T09:43:18.816Z,33.00
2022-12-01T09:46:25.912Z,42.35
2022-12-01T09:49:50.110Z,33.47
2022-12-01T09:53:00.335Z,37.40
2022-12-01T09:56:08.541Z,37.60
2022-12-01T09:59:19.724Z,37.03
2022-12-01T10:02:28.047Z,35.10
2022-12-01T10:06:03.015Z,33.13
2022-12-01T10:09:36.531Z,28.35
2022-12-01T10:12:43.209Z,29.23
2022-12-01T10:15:48.185Z,21.90
2022-12-01T10:18:56.388Z,25.73
2022-12-01T10:22:13.817Z,39.97
2022-12-01T10:25:27.796Z,28.45
2022-12-01T10:29:07.573Z,23.63
2022-12-01T10:32:40.550Z,22.67
2022-12-01T10:35:43.028Z,23.55
2022-12-01T10:38:45.740Z,32.20
2022-12-01T10:41:49.957Z,27.15
2022-12-01T10:44:54.896Z,24.10
2022-12-01T10:48:17.786Z,16.00
2022-12-01T10:51:20.776Z,15.70
2022-12-01T10:54:31.708Z,18.40
2022-12-01T10:57:34.231Z,18.80
2022-12-01T11:00:59.237Z,17.45
2022-12-01T11:04:45.530Z,17.93
2022-12-01T11:07:49.574Z,17.20
2022-12-01T11:10:52.311Z,16.70
2022-12-01T11:13:56.886Z,15.73
2022-12-01T11:17:34.493Z,20.05
2022-12-01T11:20:40.057Z,15.70
2022-12-01T11:23:50.979Z,18.73
2022-12-01T11:26:53.498Z,19.20
2022-12-01T11:30:00.184Z,19.02
2022-12-01T11:33:04.291Z,15.02
2022-12-01T11:36:11.820Z,16.63
2022-12-01T11:39:42.497Z,16.48
2022-12-01T11:42:52.149Z,21.30
2022-12-01T11:45:57.215Z,15.32
2022-12-01T11:49:01.044Z,14.95
2022-12-01T11:52:27.835Z,14.50
2022-12-01T11:55:31.745Z,19.30
2022-12-01T11:58:34.171Z,20.02
2022-12-01T12:01:53.149Z,15.25
2022-12-01T12:04:58.382Z,13.60
2022-12-01T12:08:09.135Z,16.63
2022-12-01T12:11:14.294Z,15.88
2022-12-01T12:14:47.614Z,16.10
2022-12-01T12:18:08.632Z,17.63
2022-12-01T12:21:35.563Z,17.77
2022-12-01T12:24:56.539Z,16.90
2022-12-01T12:28:17.031Z,16.92
2022-12-01T12:31:52.770Z,15.50
2022-12-01T12:34:58.201Z,16.75
2022-12-01T12:38:38.373Z,21.92
2022-12-01T12:41:46.610Z,15.47
2022-12-01T12:44:55.715Z,15.02
2022-12-01T12:48:09.751Z,15.82
2022-12-01T12:51:22.424Z,15.80
2022-12-01T12:54:34.768Z,19.58
2022-12-01T12:57:55.371Z,18.73
2022-12-01T13:01:17.201Z,15.73
2022-12-01T13:04:25.239Z,18.25
2022-12-01T13:07:46.175Z,15.75
2022-12-01T13:11:03.291Z,17.58
2022-12-01T13:14:15.613Z,18.37
2022-12-01T13:17:36.402Z,17.17
2022-12-01T13:20:39.037Z,15.43
2022-12-01T13:23:41.820Z,17.13
2022-12-01T13:26:47.347Z,16.85
2022-12-01T13:29:53.120Z,141.00
2022-12-01T13:33:05.424Z,104.22
2022-12-01T13:39:37.012Z,28.58
2022-12-01T13:42:40.657Z,31.38
2022-12-01T13:45:43.499Z,22.90
2022-12-01T13:48:45.891Z,15.45
2022-12-01T13:52:22.286Z,19.45
2022-12-01T13:55:28.248Z,17.60
2022-12-01T13:58:33.297Z,16.17
2022-12-01T14:01:43.774Z,15.57
2022-12-01T14:04:46.908Z,16.17
2022-12-01T14:07:55.639Z,17.77
2022-12-01T14:11:05.973Z,15.98
2022-12-01T14:14:24.374Z,14.68
2022-12-01T14:17:34.954Z,15.97
2022-12-01T14:20:46.628Z,17.70
2022-12-01T14:24:02.746Z,17.95
2022-12-01T14:27:06.307Z,17.02
2022-12-01T14:30:40.001Z,16.20
2022-12-01T14:33:42.194Z,14.47
2022-12-01T14:36:49.067Z,14.85
2022-12-01T14:39:58.644Z,17.13
2022-12-01T14:43:19.867Z,13.85
2022-12-01T14:46:26.297Z,15.35
2022-12-01T14:49:39.646Z,33.30
2022-12-01T14:52:45.175Z,26.00
2022-12-01T14:56:14.518Z,30.05
2022-12-01T14:59:23.026Z,36.53
2022-12-01T15:02:25.446Z,40.28
2022-12-01T15:05:30.335Z,39.30
2022-12-01T15:08:41.959Z,45.13
2022-12-01T15:12:09.194Z,52.00
2022-12-01T15:15:23.762Z,38.15
2022-12-01T15:18:31.003Z,26.73
2022-12-01T15:21:33.456Z,29.67
2022-12-01T15:24:36.067Z,21.40
2022-12-01T15:27:38.874Z,24.40
2022-12-01T15:30:42.984Z,20.88
2022-12-01T15:33:51.205Z,17.50
2022-12-01T15:36:54.307Z,16.43
2022-12-01T15:43:35.180Z,18.73
2022-12-01T15:46:37.474Z,20.63
2022-12-01T15:49:49.183Z,18.30
2022-12-01T15:52:51.599Z,18.57
2022-12-01T15:55:59.007Z,21.10
2022-12-01T15:59:10.388Z,21.40
2022-12-01T16:02:15.593Z,18.67
2022-12-01T16:05:22.302Z,18.48
2022-12-01T16:08:27.918Z,19.80
2022-12-01T16:11:30.759Z,22.17
2022-12-01T16:14:34.301Z,20.77
2022-12-01T16:17:47.078Z,22.02
2022-12-01T16:20:50.280Z,22.98
2022-12-01T16:24:04.722Z,20.50
2022-12-01T16:27:18.269Z,28.88
2022-12-01T16:30:23.605Z,31.67
2022-12-01T16:33:28.196Z,30.45
2022-12-01T16:36:30.473Z,60.13
2022-12-01T16:39:33.039Z,58.00
2022-12-01T16:42:35.307Z,42.72
2022-12-01T16:45:37.585Z,37.70
2022-12-01T16:48:40.039Z,47.78
2022-12-01T16:51:55.573Z,45.35
2022-12-01T16:54:58.648Z,45.33
2022-12-01T16:58:01.128Z,42.25
2022-12-01T17:01:05.142Z,44.30
2022-12-01T17:04:07.916Z,43.28
2022-12-01T17:07:10.319Z,41.30
2022-12-01T17:10:12.938Z,40.27
2022-12-01T17:13:15.870Z,39.63
2022-12-01T17:16:18.925Z,45.95
2022-12-01T17:19:21.316Z,45.97
2022-12-01T17:22:24.625Z,44.67
2022-12-01T17:25:27.335Z,51.50
2022-12-01T17:28:29.570Z,45.28
2022-12-01T17:31:31.968Z,47.90
2022-12-01T17:34:34.349Z,65.82
2022-12-01T17:37:39.163Z,58.22
2022-12-01T17:40:42.160Z,50.60
2022-12-01T17:43:44.572Z,50.47
2022-12-01T17:46:46.835Z,47.38
2022-12-01T17:49:49.158Z,44.92
2022-12-01T17:52:51.702Z,50.00
2022-12-01T17:55:54.057Z,44.10
2022-12-01T17:58:56.540Z,44.90
2022-12-01T18:01:59.028Z,48.58
2022-12-01T18:05:01.410Z,52.55
2022-12-01T18:08:04.063Z,79.82
2022-12-01T18:11:12.214Z,61.67
2022-12-01T18:14:17.915Z,67.22
2022-12-01T18:17:20.313Z,64.88
2022-12-01T18:20:22.566Z,52.25
2022-12-01T18:23:25.206Z,53.40
2022-12-01T18:26:29.322Z,50.03
2022-12-01T18:29:31.776Z,47.00
2022-12-01T18:32:34.085Z,49.42
2022-12-01T18:35:41.666Z,51.97
2022-12-01T18:38:44.453Z,61.22
2022-12-01T18:41:47.057Z,74.57
2022-12-01T18:44:49.667Z,53.13
2022-12-01T18:47:52.437Z,51.35
2022-12-01T18:50:59.299Z,70.22
2022-12-01T18:54:04.499Z,61.95
2022-12-01T18:57:06.907Z,63.83
2022-12-01T19:00:09.996Z,67.05
2022-12-01T19:03:12.397Z,67.90
2022-12-01T19:06:14.789Z,62.25
2022-12-01T19:09:17.508Z,62.80
2022-12-01T19:12:19.900Z,63.73
2022-12-01T19:15:22.763Z,73.88
2022-12-01T19:18:25.783Z,78.20
2022-12-01T19:21:28.348Z,81.95
2022-12-01T19:24:30.619Z,93.85
2022-12-01T19:27:32.868Z,79.53
2022-12-01T19:30:35.733Z,70.97
2022-12-01T19:33:38.460Z,66.82
2022-12-01T19:36:40.735Z,67.72
2022-12-01T19:39:43.114Z,67.55
2022-12-01T19:42:46.061Z,60.77
2022-12-01T19:45:48.423Z,63.15
2022-12-01T19:48:56.105Z,81.10
2022-12-01T19:51:58.350Z,65.78
2022-12-01T19:55:00.581Z,97.93
2022-12-01T19:58:04.367Z,237.67
2022-12-01T20:01:09.445Z,188.00
2022-12-01T20:04:11.788Z,120.03
2022-12-01T20:07:14.108Z,132.68
2022-12-01T20:10:20.122Z,143.23
2022-12-01T20:13:22.580Z,166.80
2022-12-01T20:16:26.652Z,145.85
2022-12-01T20:19:29.041Z,116.97
2022-12-01T20:22:35.522Z,127.47
2022-12-01T20:25:38.357Z,97.20
2022-12-01T20:28:41.348Z,74.17
2022-12-01T20:31:44.966Z,74.50
2022-12-01T20:34:47.794Z,72.95
2022-12-01T20:37:50.550Z,75.10
2022-12-01T20:40:52.829Z,70.18
2022-12-01T20:43:55.160Z,70.90
2022-12-01T20:46:57.857Z,73.55
2022-12-01T20:50:00.200Z,78.55
2022-12-01T20:53:02.521Z,79.05
2022-12-01T20:56:06.789Z,74.00
2022-12-01T20:59:09.142Z,71.90
2022-12-01T21:02:11.496Z,78.57
2022-12-01T21:05:13.912Z,69.57
2022-12-01T21:08:16.978Z,72.47
2022-12-01T21:11:43.671Z,72.22
2022-12-01T21:14:52.645Z,72.23
2022-12-01T21:18:05.430Z,72.55
2022-12-01T21:21:35.270Z,70.75
2022-12-01T21:24:43.341Z,72.57
2022-12-01T21:27:47.505Z,74.15
2022-12-01T21:30:52.794Z,73.67
2022-12-01T21:33:55.788Z,70.57
2022-12-01T21:37:02.478Z,71.78
2022-12-01T21:40:15.811Z,81.47
2022-12-01T21:43:23.960Z,74.40
2022-12-01T21:46:27.674Z,71.83
2022-12-01T21:49:37.925Z,71.35
2022-12-01T21:52:42.733Z,73.15
2022-12-01T21:55:47.670Z,70.93
2022-12-01T21:58:50.391Z,73.75
2022-12-01T22:01:55.103Z,72.63
2022-12-01T22:04:59.390Z,69.35
2022-12-01T22:08:15.187Z,67.68
2022-12-01T22:11:24.493Z,59.90
2022-12-01T22:14:33.757Z,59.22
2022-12-01T22:17:36.878Z,63.73
2022-12-01T22:20:39.130Z,61.75
2022-12-01T22:23:41.438Z,60.60
2022-12-01T22:26:47.896Z,60.95
2022-12-01T22:29:52.902Z,59.22
2022-12-01T22:33:00.026Z,58.93
2022-12-01T22:36:02.326Z,62.10
2022-12-01T22:39:24.538Z,62.25
2022-12-01T22:42:32.164Z,61.83
2022-12-01T22:45:34.502Z,68.82
2022-12-01T22:48:42.165Z,71.50
2022-12-01T22:51:48.644Z,72.68
2022-12-01T22:54:51.369Z,72.72
2022-12-01T22:57:54.726Z,81.25
2022-12-01T23:01:02.458Z,82.22
2022-12-01T23:04:24.295Z,89.97
2022-12-01T23:07:35.191Z,82.30
2022-12-01T23:10:39.814Z,74.28
2022-12-01T23:13:42.096Z,78.40
2022-12-01T23:16:44.363Z,78.10
2022-12-01T23:19:48.405Z,69.97
2022-12-01T23:22:56.622Z,76.97
2022-12-01T23:26:01.818Z,70.28
2022-12-01T23:29:04.176Z,75.90
2022-12-01T23:32:06.481Z,73.05
2022-12-01T23:35:16.903Z,68.07
2022-12-01T23:38:22.808Z,65.15
2022-12-01T23:41:25.824Z,69.38
2022-12-01T23:44:36.882Z,68.40
2022-12-01T23:47:39.130Z,62.42
2022-12-01T23:50:41.589Z,66.83
2022-12-01T23:53:44.558Z,64.13
2022-12-01T23:56:55.986Z,66.97
